LFCRLFBP

Guest
Details From LFCR - Rodez Marcillac
To LFBP - Pau Pyrenees
Flight Number -
Tags generated
Created
Modified
Stats Distance 140 nm / 259 km
Max Altitude 0 ft / 0 m
Waypoints 2
Social Downloads 1
Likes 0
Share VATSIM

Download

Looking for another format? Having issues loading an existing format? Contact us
Advertisement - Login to hide

Notes

Basic altitude profile: - Ascent Rate: 2500ft/min - Ascent Speed: 250kts - Cruise Altitude: 35000ft - Cruise Speed: 420kts - Descent Rate: 1500ft/min - Descent Speed: 250kts Options: - Use NATs: no - Use PACOTS: no - Use low airways: no - Use high airways: no

Route

LFCR LFBP

ID Type Via Altitude Latitude Longitude Leg Dist Tot Dist Heading (true) Name
O LFCR APT - 0 ft / 0 m 44.40789˚ 2.48265˚ - 0 nm - Rodez Marcillac
O LFBP APT - 0 ft / 0 m 43.38108˚ -0.42075˚ 139 nm 139 nm 245° / 243° Pau Pyrenees

Altitude Profile

Advertisement - Login to hide

LFCR

Details ICAO LFCR (RDZ)
Name Rodez Marcillac
Region France
Timezone Europe/Paris (UTC+1.0)
Stats Elevation 1,910 ft / 582 m (AMSL)
Location 44.407888° 2.482646°
Runways 1
Magnetic Variation 0.846° E

METAR

LFCR 172330Z AUTO 31003KT 1500 BR FEW001 OVC026 M00/M00 Q1030 TEMPO 0400 FG VV///

Decode

TAF

TAF AMD LFCR 171831Z 1718/1818 28005KT CAVOK BECMG 1718/1720 BKN005 TEMPO 1720/1802 3000 BR OVC002 PROB40 TEMPO 1720/1802 0400 FG VV/// PROB30 TEMPO 1802/1804 2000 -SN OVC002 PROB30 TEMPO 1804/1806 -RASN BECMG 1806/1808 27010KT TEMPO 1806/1810 2000 -RA OVC002 PROB30 TEMPO 1804/1810 0600 FG VV/// TEMPO 1810/1816 2000 RA BKN005 BECMG 1815/1817 02008KT BECMG 1817/1818 CAVOK

Decode

Departure Runways

ID Width Length Bearing (true) Bearing (mag) Surface Threshold Offset Overrun Length
13 148 ft / 45 m 6,709 ft / 2,045 m 129.07° 128.22° Asphalt 0 ft / 0 m 656 ft / 200 m
31 148 ft / 45 m 6,709 ft / 2,045 m 309.08° 308.23° Asphalt 164 ft / 50 m 0 ft / 0 m

LFBP

Details ICAO LFBP (PUF)
Name Pau Pyrenees
Region France
Timezone Europe/Paris (UTC+1.0)
Stats Elevation 616 ft / 188 m (AMSL)
Location 43.381078° -0.420752°
Runways 1
Magnetic Variation 0.095° E

METAR

LFBP 172330Z AUTO VRB01KT 9000 BKN030 OVC038 06/05 Q1033 TEMPO 4000 -RA BKN012

Decode

TAF

TAF LFBP 171700Z 1718/1818 22005KT 9999 FEW030 BKN090 TEMPO 1722/1818 4000 -RA BKN012 PROB40 TEMPO 1811/1818 25015G25KT PROB40 TEMPO 1816/1818 BKN007

Decode

Destination Runways

ID Width Length Bearing (true) Bearing (mag) Surface Threshold Offset Overrun Length
13 148 ft / 45 m 8,191 ft / 2,497 m 125.89° 125.79° Asphalt 0 ft / 0 m 0 ft / 0 m
31 148 ft / 45 m 8,191 ft / 2,497 m 305.90° 305.80° Asphalt 0 ft / 0 m 0 ft / 0 m

Approach Navaids

Runway Type Ident Frequency Range Bearing (true) Bearing (mag) Slope Elevation
31 Localiser PU 110.10 MHz 18 nm / 33 km 305.89° 305.79° - 576 ft / 176 m (AMSL)
31 Glidescope PU 110.10 MHz 10 nm / 19 km 305.90° 305.80° 3.00° 676 ft / 206 m (AMSL)
31 DME PU 110.10 MHz 18 nm / 33 km - - - 608 ft / 185 m (AMSL)